createdAt,value
2022-07-29T00:02:25.579Z,98257.56
2022-07-29T00:04:52.381Z,98254.66
2022-07-29T00:07:19.335Z,98250.88
2022-07-29T00:09:51.167Z,98252.22
2022-07-29T00:12:25.464Z,98252.69
2022-07-29T00:14:55.790Z,98253.13
2022-07-29T00:17:23.398Z,98258.22
2022-07-29T00:19:50.077Z,98255.59
2022-07-29T00:22:21.052Z,98257.25
2022-07-29T00:24:50.232Z,98248.31
2022-07-29T00:27:17.700Z,98254.56
2022-07-29T00:29:45.701Z,98242.00
2022-07-29T00:32:12.472Z,98242.44
2022-07-29T00:34:54.582Z,98249.28
2022-07-29T00:37:21.255Z,98246.88
2022-07-29T00:39:48.480Z,98247.75
2022-07-29T00:42:15.157Z,98257.50
2022-07-29T00:44:42.671Z,98255.63
2022-07-29T00:47:11.438Z,98261.00
2022-07-29T00:49:40.117Z,98257.28
2022-07-29T00:52:08.261Z,98253.44
2022-07-29T00:54:39.129Z,98256.78
2022-07-29T00:57:12.437Z,98256.88
2022-07-29T00:59:39.246Z,98248.78
2022-07-29T01:02:06.157Z,98255.78
2022-07-29T01:04:33.286Z,98258.97
2022-07-29T01:07:02.895Z,98256.28
2022-07-29T01:09:42.928Z,98265.59
2022-07-29T01:12:22.420Z,98267.38
2022-07-29T01:14:51.044Z,98267.22
2022-07-29T01:17:25.199Z,98274.84
2022-07-29T01:20:07.343Z,98277.84
2022-07-29T01:22:35.021Z,98274.34
2022-07-29T01:25:32.089Z,98279.28
2022-07-29T01:28:13.931Z,98281.25
2022-07-29T01:30:43.045Z,98281.59
2022-07-29T01:33:34.997Z,98284.78
2022-07-29T01:36:06.803Z,98287.28
2022-07-29T01:38:36.121Z,98284.59
2022-07-29T01:41:16.072Z,98276.25
2022-07-29T01:43:50.629Z,98269.69
2022-07-29T01:46:25.423Z,98280.41
2022-07-29T01:48:59.631Z,98276.19
2022-07-29T01:51:34.976Z,98278.31
2022-07-29T01:54:17.809Z,98283.13
2022-07-29T01:56:48.351Z,98277.03
2022-07-29T01:59:17.137Z,98285.00
2022-07-29T02:01:46.715Z,98282.66
2022-07-29T02:04:29.537Z,98276.47
2022-07-29T02:07:01.991Z,98275.28
2022-07-29T02:09:31.586Z,98274.63
2022-07-29T02:12:00.559Z,98286.41
2022-07-29T02:14:32.290Z,98284.47
2022-07-29T02:17:01.860Z,98276.44
2022-07-29T02:19:30.493Z,98284.50
2022-07-29T02:21:58.674Z,98279.09
2022-07-29T02:24:26.953Z,98279.63
2022-07-29T02:26:56.966Z,98281.25
2022-07-29T02:29:26.045Z,98278.53
2022-07-29T02:31:55.455Z,98271.81
2022-07-29T02:34:23.364Z,98265.41
2022-07-29T02:36:51.585Z,98267.31
2022-07-29T02:39:19.167Z,98275.75
2022-07-29T02:41:51.028Z,98264.19
2022-07-29T02:44:20.894Z,98261.44
2022-07-29T02:46:53.182Z,98267.56
2022-07-29T02:49:36.088Z,98269.38
2022-07-29T02:52:08.768Z,98266.97
2022-07-29T02:54:52.708Z,98269.38
2022-07-29T02:57:28.518Z,98268.59
2022-07-29T03:00:00.311Z,98269.16
2022-07-29T03:02:28.931Z,98269.03
2022-07-29T03:05:00.413Z,98267.16
2022-07-29T03:07:28.349Z,98274.78
2022-07-29T03:09:55.763Z,98277.31
2022-07-29T03:12:23.836Z,98276.31
2022-07-29T03:14:50.797Z,98272.69
2022-07-29T03:17:17.751Z,98269.13
2022-07-29T03:19:44.962Z,98264.28
2022-07-29T03:22:12.087Z,98267.25
2022-07-29T03:24:39.232Z,98267.25
2022-07-29T03:27:06.757Z,98266.97
2022-07-29T03:29:34.689Z,98270.75
2022-07-29T03:32:07.855Z,98267.25
2022-07-29T03:34:34.902Z,98267.75
2022-07-29T03:37:01.551Z,98263.50
2022-07-29T03:39:32.437Z,98262.19
2022-07-29T03:42:02.209Z,98268.41
2022-07-29T03:44:30.231Z,98269.47
2022-07-29T03:47:01.019Z,98270.06
2022-07-29T03:49:28.954Z,98272.25
2022-07-29T03:51:55.940Z,98272.63
2022-07-29T03:54:23.632Z,98274.59
2022-07-29T03:56:53.272Z,98277.41
2022-07-29T03:59:22.385Z,98270.34
2022-07-29T04:01:50.076Z,98272.69
2022-07-29T04:04:17.724Z,98274.78
2022-07-29T04:06:48.226Z,98265.41
2022-07-29T04:09:15.223Z,98274.28
2022-07-29T04:12:02.408Z,98275.91
2022-07-29T04:14:29.952Z,98274.38
2022-07-29T04:16:56.600Z,98279.66
2022-07-29T04:19:23.613Z,98277.72
2022-07-29T04:21:50.479Z,98278.22
2022-07-29T04:24:20.860Z,98276.56
2022-07-29T04:26:48.038Z,98278.69
2022-07-29T04:29:15.521Z,98283.78
2022-07-29T04:31:43.080Z,98289.16
2022-07-29T04:34:10.302Z,98286.47
2022-07-29T04:36:37.225Z,98288.84
2022-07-29T04:39:04.691Z,98286.41
2022-07-29T04:41:33.329Z,98295.50
2022-07-29T04:44:06.843Z,98293.88
2022-07-29T04:46:34.545Z,98293.59
2022-07-29T04:49:01.555Z,98294.97
2022-07-29T04:51:28.652Z,98299.22
2022-07-29T04:53:55.372Z,98306.97
2022-07-29T04:56:22.031Z,98314.75
2022-07-29T04:58:48.759Z,98315.03
2022-07-29T05:01:15.749Z,98304.81
2022-07-29T05:03:42.594Z,98312.34
2022-07-29T05:06:09.298Z,98315.56
2022-07-29T05:08:35.975Z,98314.25
2022-07-29T05:11:12.033Z,98313.66
2022-07-29T05:13:46.006Z,98306.69
2022-07-29T05:16:14.363Z,98316.34
2022-07-29T05:18:41.494Z,98304.81
2022-07-29T05:21:08.190Z,98317.09
2022-07-29T05:23:35.133Z,98317.63
2022-07-29T05:26:02.062Z,98317.84
2022-07-29T05:28:28.879Z,98311.09
2022-07-29T05:30:55.693Z,98314.84
2022-07-29T05:33:35.606Z,98307.81
2022-07-29T05:36:07.890Z,98307.53
2022-07-29T05:38:36.532Z,98301.38
2022-07-29T05:41:03.996Z,98312.59
2022-07-29T05:43:30.973Z,98316.13
2022-07-29T05:45:58.129Z,98309.16
2022-07-29T05:48:25.383Z,98310.47
2022-07-29T05:50:52.113Z,98316.66
2022-07-29T05:53:20.362Z,98299.34
2022-07-29T05:55:48.444Z,98293.41
2022-07-29T05:58:15.389Z,98295.47
2022-07-29T06:00:42.232Z,98295.38
2022-07-29T06:03:09.297Z,98306.72
2022-07-29T06:05:35.979Z,98301.84
2022-07-29T06:08:02.723Z,98294.97
2022-07-29T06:10:29.636Z,98299.91
2022-07-29T06:12:56.432Z,98302.00
2022-07-29T06:15:23.239Z,98297.09
2022-07-29T06:18:00.721Z,98303.53
2022-07-29T06:20:31.450Z,98296.53
2022-07-29T06:22:59.263Z,98301.91
2022-07-29T06:25:26.203Z,98310.19
2022-07-29T06:27:53.300Z,98314.47
2022-07-29T06:30:20.092Z,98312.84
2022-07-29T06:32:47.207Z,98313.34
2022-07-29T06:38:00.692Z,98315.16
2022-07-29T06:40:42.730Z,98327.44
2022-07-29T06:43:09.771Z,98327.66
2022-07-29T06:45:36.602Z,98329.59
2022-07-29T06:48:03.635Z,98323.91
2022-07-29T06:50:30.306Z,98338.75
2022-07-29T06:52:57.116Z,98335.78
2022-07-29T06:55:25.142Z,98324.44
2022-07-29T06:57:52.425Z,98328.69
2022-07-29T07:00:19.312Z,98328.44
2022-07-29T07:02:46.203Z,98327.53
2022-07-29T07:05:14.142Z,98329.94
2022-07-29T07:07:40.858Z,98331.84
2022-07-29T07:10:08.019Z,98331.00
2022-07-29T07:12:34.699Z,98336.69
2022-07-29T07:15:01.800Z,98334.53
2022-07-29T07:17:28.512Z,98335.44
2022-07-29T07:19:55.143Z,98340.53
2022-07-29T07:22:21.953Z,98336.03
2022-07-29T07:24:48.616Z,98338.94
2022-07-29T07:27:15.494Z,98343.09
2022-07-29T07:29:42.509Z,98344.78
2022-07-29T07:32:11.101Z,98342.59
2022-07-29T07:34:38.984Z,98339.09
2022-07-29T07:37:06.387Z,98339.41
2022-07-29T07:39:33.125Z,98339.69
2022-07-29T07:42:00.135Z,98334.09
2022-07-29T07:44:27.423Z,98335.69
2022-07-29T07:46:54.554Z,98332.50
2022-07-29T07:49:21.768Z,98333.81
2022-07-29T07:51:50.956Z,98334.81
2022-07-29T07:54:20.801Z,98338.59
2022-07-29T07:56:53.034Z,98336.41
2022-07-29T07:59:20.168Z,98343.38
2022-07-29T08:01:48.409Z,98340.69
2022-07-29T08:04:27.361Z,98340.41
2022-07-29T08:06:56.720Z,98346.63
2022-07-29T08:09:31.187Z,98340.00
2022-07-29T08:12:00.347Z,98335.44
2022-07-29T08:14:27.326Z,98342.44
2022-07-29T08:16:54.758Z,98345.13
2022-07-29T08:19:21.473Z,98342.31
2022-07-29T08:21:48.782Z,98349.13
2022-07-29T08:24:30.901Z,98346.44
2022-07-29T08:27:00.838Z,98348.91
2022-07-29T08:29:27.449Z,98354.31
2022-07-29T08:31:54.433Z,98352.41
2022-07-29T08:34:28.098Z,98348.00
2022-07-29T08:36:55.715Z,98356.91
2022-07-29T08:39:23.327Z,98353.69
2022-07-29T08:41:57.434Z,98354.22
2022-07-29T08:44:30.857Z,98346.84
2022-07-29T08:46:58.364Z,98349.31
2022-07-29T08:49:25.319Z,98348.31
2022-07-29T08:51:54.897Z,98353.09
2022-07-29T08:54:24.432Z,98347.72
2022-07-29T08:56:52.166Z,98358.41
2022-07-29T08:59:23.872Z,98353.44
2022-07-29T09:01:55.187Z,98349.38
2022-07-29T09:04:25.872Z,98356.84
2022-07-29T09:06:55.323Z,98349.06
2022-07-29T09:09:22.532Z,98351.25
2022-07-29T09:11:49.439Z,98345.28
2022-07-29T09:14:16.377Z,98350.06
2022-07-29T09:17:01.068Z,98346.50
2022-07-29T09:19:31.493Z,98351.53
2022-07-29T09:22:03.103Z,98355.22
2022-07-29T09:24:40.654Z,98357.50
2022-07-29T09:27:10.745Z,98356.59
2022-07-29T09:29:38.565Z,98359.09
2022-07-29T09:32:09.496Z,98358.50
2022-07-29T09:34:36.181Z,98349.00
2022-07-29T09:37:03.883Z,98350.53
2022-07-29T09:39:33.064Z,98340.44
2022-07-29T09:42:02.614Z,98345.81
2022-07-29T09:44:43.502Z,98350.50
2022-07-29T09:47:10.346Z,98346.81
2022-07-29T09:49:53.423Z,98345.59
2022-07-29T09:52:21.323Z,98344.38
2022-07-29T09:54:48.133Z,98344.06
2022-07-29T09:57:31.251Z,98342.97
2022-07-29T10:00:02.912Z,98349.47
2022-07-29T10:02:31.967Z,98347.47
2022-07-29T10:05:00.497Z,98352.88
2022-07-29T10:07:43.518Z,98340.56
2022-07-29T10:10:10.937Z,98347.25
2022-07-29T10:12:51.824Z,98340.63
2022-07-29T10:15:19.055Z,98340.91
2022-07-29T10:17:46.557Z,98338.28
2022-07-29T10:20:16.374Z,98336.09
2022-07-29T10:22:52.900Z,98328.34
2022-07-29T10:25:21.599Z,98338.53
2022-07-29T10:27:49.822Z,98340.78
2022-07-29T10:30:17.850Z,98324.28
2022-07-29T10:33:15.795Z,98323.78
2022-07-29T10:35:54.834Z,98329.25
2022-07-29T10:38:48.015Z,98322.47
2022-07-29T10:41:47.623Z,98326.00
2022-07-29T10:44:22.918Z,98319.75
2022-07-29T10:46:52.525Z,98314.34
2022-07-29T10:49:24.761Z,98318.94
2022-07-29T10:52:08.229Z,98314.50
2022-07-29T10:54:35.898Z,98315.78
2022-07-29T10:57:17.843Z,98307.81
2022-07-29T10:59:46.547Z,98311.81
2022-07-29T11:02:43.947Z,98312.31
2022-07-29T11:05:18.791Z,98308.16
2022-07-29T11:08:20.418Z,98302.91
2022-07-29T11:10:49.700Z,98310.09
2022-07-29T11:13:47.358Z,98305.59
2022-07-29T11:16:16.442Z,98305.44
2022-07-29T11:19:14.341Z,98302.06
2022-07-29T11:21:54.124Z,98298.09
2022-07-29T11:27:20.033Z,98290.63
2022-07-29T11:29:58.667Z,98291.88
2022-07-29T11:32:37.660Z,98295.41
2022-07-29T11:35:38.441Z,98288.22
2022-07-29T11:38:31.942Z,98296.69
2022-07-29T11:41:14.520Z,98295.03
2022-07-29T11:43:50.639Z,98286.25
2022-07-29T11:46:39.567Z,98284.00
2022-07-29T11:49:09.829Z,98284.16
2022-07-29T11:51:48.295Z,98291.16
2022-07-29T11:54:18.805Z,98287.91
2022-07-29T11:56:55.011Z,98284.25
2022-07-29T11:59:22.469Z,98274.56
2022-07-29T12:02:18.541Z,98272.59
2022-07-29T12:04:57.855Z,98270.28
2022-07-29T12:07:01.248Z,98291.78
2022-07-29T12:07:35.767Z,98271.25
2022-07-29T12:10:04.541Z,98263.13
2022-07-29T12:12:33.555Z,98258.97
2022-07-29T12:15:12.272Z,98258.44
2022-07-29T12:17:40.339Z,98253.63
2022-07-29T12:20:07.303Z,98246.63
2022-07-29T12:22:40.288Z,98241.31
2022-07-29T12:25:32.410Z,98247.88
2022-07-29T12:28:03.437Z,98238.84
2022-07-29T12:30:47.144Z,98231.31
2022-07-29T12:33:16.396Z,98230.19
2022-07-29T12:35:47.814Z,98227.34
2022-07-29T12:38:21.571Z,98219.22
2022-07-29T12:40:49.969Z,98217.19
2022-07-29T12:43:19.445Z,98214.81
2022-07-29T12:45:49.453Z,98209.94
2022-07-29T12:48:18.040Z,98206.38
2022-07-29T12:50:54.897Z,98206.19
2022-07-29T12:53:37.269Z,98196.22
2022-07-29T12:56:48.594Z,98199.03
2022-07-29T12:59:46.586Z,98200.38
2022-07-29T13:02:58.327Z,98196.72
2022-07-29T13:06:08.266Z,98187.44
2022-07-29T13:09:27.281Z,98188.56
2022-07-29T13:12:52.232Z,98189.63
2022-07-29T13:16:18.283Z,98188.69
2022-07-29T13:19:29.313Z,98192.22
2022-07-29T13:22:30.260Z,98196.53
2022-07-29T13:25:51.263Z,98192.44
2022-07-29T13:28:51.598Z,98191.13
2022-07-29T13:32:01.586Z,98191.44
2022-07-29T13:35:15.298Z,98187.56
2022-07-29T13:38:31.095Z,98187.56
2022-07-29T13:41:31.597Z,98185.66
2022-07-29T13:44:42.282Z,98191.63
2022-07-29T13:47:52.275Z,98179.41
2022-07-29T13:50:52.352Z,98176.53
2022-07-29T13:54:02.268Z,98169.84
2022-07-29T13:57:02.342Z,98164.31
2022-07-29T14:00:12.288Z,98157.53
2022-07-29T14:03:22.292Z,98140.56
2022-07-29T14:06:32.263Z,98138.47
2022-07-29T14:09:42.303Z,98128.47
2022-07-29T14:12:52.292Z,98129.78
2022-07-29T14:15:52.396Z,98130.47
2022-07-29T14:19:05.287Z,98124.72
2022-07-29T14:22:05.391Z,98133.56
2022-07-29T14:25:15.770Z,98127.50
2022-07-29T14:28:15.383Z,98127.34
2022-07-29T14:31:26.355Z,98122.59
2022-07-29T14:34:39.345Z,98134.44
2022-07-29T14:37:49.307Z,98125.72
2022-07-29T14:40:59.321Z,98120.66
2022-07-29T14:44:11.338Z,98121.53
2022-07-29T14:47:21.313Z,98121.78
2022-07-29T14:50:32.292Z,98118.09
2022-07-29T14:53:33.761Z,98119.06
2022-07-29T14:56:47.036Z,98120.75
2022-07-29T14:59:47.399Z,98115.09
2022-07-29T15:03:02.398Z,98118.81
2022-07-29T15:06:12.358Z,98112.94
2022-07-29T15:09:22.365Z,98118.28
2022-07-29T15:12:22.422Z,98113.19
2022-07-29T15:15:32.353Z,98112.22
2022-07-29T15:18:42.348Z,98114.22
2022-07-29T15:21:53.322Z,98107.53
2022-07-29T15:24:53.395Z,98099.47
2022-07-29T15:28:03.363Z,98100.44
2022-07-29T15:31:03.425Z,98100.19
2022-07-29T15:34:13.357Z,98100.19
2022-07-29T15:37:23.353Z,98093.41
2022-07-29T15:40:23.685Z,98078.03
2022-07-29T15:43:33.366Z,98082.69
2022-07-29T15:46:58.623Z,98083.84
2022-07-29T15:49:58.485Z,98078.19
2022-07-29T15:53:08.378Z,98083.47
2022-07-29T15:56:18.363Z,98085.06
2022-07-29T15:59:28.408Z,98086.72
2022-07-29T16:02:38.371Z,98079.34
2022-07-29T16:05:52.386Z,98075.31
2022-07-29T16:08:52.430Z,98083.75
2022-07-29T16:12:03.389Z,98074.75
2022-07-29T16:15:24.380Z,98066.16
2022-07-29T16:18:30.563Z,98064.06
2022-07-29T16:21:41.372Z,98055.00
2022-07-29T16:24:41.838Z,98053.88
2022-07-29T16:27:51.391Z,98052.72
2022-07-29T16:30:57.962Z,98054.13
2022-07-29T16:34:08.406Z,98047.44
2022-07-29T16:37:08.748Z,98047.81
2022-07-29T16:40:20.387Z,98047.69
2022-07-29T16:43:30.390Z,98057.34
2022-07-29T16:46:30.570Z,98053.25
2022-07-29T16:49:40.402Z,98043.81
2022-07-29T16:52:50.408Z,98050.91
2022-07-29T16:55:50.693Z,98048.69
2022-07-29T16:59:01.422Z,98050.88
2022-07-29T17:02:12.443Z,98051.50
2022-07-29T17:05:24.464Z,98046.03
2022-07-29T17:08:34.423Z,98047.78
2022-07-29T17:11:53.687Z,98046.94
2022-07-29T17:15:04.416Z,98054.22
2022-07-29T17:18:14.448Z,98036.31
2022-07-29T17:21:25.417Z,98041.44
2022-07-29T17:24:35.441Z,98040.78
2022-07-29T17:27:35.915Z,98037.25
2022-07-29T17:30:46.428Z,98044.09
2022-07-29T17:33:59.911Z,98045.22
2022-07-29T17:37:09.504Z,98044.78
2022-07-29T17:40:22.445Z,98048.66
2022-07-29T17:43:35.458Z,98047.31
2022-07-29T17:46:40.664Z,98055.69
2022-07-29T17:49:51.417Z,98047.28
2022-07-29T17:53:05.401Z,98051.34
2022-07-29T17:56:25.449Z,98050.13
2022-07-29T17:59:35.447Z,98050.13
2022-07-29T18:02:46.503Z,98042.06
2022-07-29T18:05:46.519Z,98051.47
2022-07-29T18:08:57.461Z,98048.06
2022-07-29T18:12:07.446Z,98052.13
2022-07-29T18:15:08.185Z,98041.81
2022-07-29T18:18:17.453Z,98049.16
2022-07-29T18:21:38.126Z,98049.22
2022-07-29T18:24:48.504Z,98043.09
2022-07-29T18:28:00.460Z,98058.59
2022-07-29T18:31:10.563Z,98054.34
2022-07-29T18:34:21.470Z,98058.31
2022-07-29T18:38:01.820Z,98065.03
2022-07-29T18:41:01.474Z,98070.00
2022-07-29T18:44:01.640Z,98079.34
2022-07-29T18:47:14.468Z,98066.03
2022-07-29T18:50:15.519Z,98071.47
2022-07-29T18:53:28.473Z,98075.78
2022-07-29T18:56:29.661Z,98083.13
2022-07-29T18:59:40.481Z,98093.00
2022-07-29T19:02:53.731Z,98089.53
2022-07-29T19:05:53.828Z,98098.00
2022-07-29T19:09:03.488Z,98100.41
2022-07-29T19:12:13.514Z,98097.69
2022-07-29T19:15:24.517Z,98100.09
2022-07-29T19:18:34.509Z,98092.28
2022-07-29T19:21:35.937Z,98094.19
2022-07-29T19:24:45.489Z,98086.41
2022-07-29T19:27:55.516Z,98095.63
2022-07-29T19:31:05.589Z,98105.69
2022-07-29T19:34:17.501Z,98107.13
2022-07-29T19:37:17.792Z,98105.97
2022-07-29T19:40:27.501Z,98104.88
2022-07-29T19:43:51.085Z,98112.19
2022-07-29T19:47:03.528Z,98115.22
2022-07-29T19:50:04.307Z,98121.75
2022-07-29T19:53:15.521Z,98149.31
2022-07-29T19:56:34.533Z,98174.53
2022-07-29T19:59:38.939Z,98183.81
2022-07-29T20:02:49.611Z,98175.56
2022-07-29T20:05:52.462Z,98181.09
2022-07-29T20:09:02.524Z,98189.50
2022-07-29T20:12:14.540Z,98215.88
2022-07-29T20:15:26.544Z,98216.22
2022-07-29T20:18:39.558Z,98219.53
2022-07-29T20:21:49.548Z,98230.88
2022-07-29T20:24:59.543Z,98237.03
2022-07-29T20:28:02.624Z,98226.50
2022-07-29T20:31:18.571Z,98231.09
2022-07-29T20:34:28.544Z,98257.59
2022-07-29T20:37:28.929Z,98288.72
2022-07-29T20:40:38.650Z,98320.56
2022-07-29T20:43:39.323Z,98351.25
2022-07-29T20:46:49.563Z,98364.25
2022-07-29T20:50:00.547Z,98370.50
2022-07-29T20:53:00.660Z,98378.84
2022-07-29T20:56:10.561Z,98378.69
2022-07-29T20:59:00.561Z,98386.94
2022-07-29T21:01:41.427Z,98394.28
2022-07-29T21:04:32.650Z,98402.09
2022-07-29T21:07:22.558Z,98405.38
2022-07-29T21:10:02.613Z,98411.31
2022-07-29T21:12:52.576Z,98412.19
2022-07-29T21:15:42.591Z,98407.09
2022-07-29T21:18:32.411Z,98406.56
2022-07-29T21:21:23.936Z,98410.53
2022-07-29T21:24:04.489Z,98415.91
2022-07-29T21:30:00.228Z,98409.84
2022-07-29T21:32:40.717Z,98405.78
2022-07-29T21:38:38.718Z,98422.25
2022-07-29T21:41:28.603Z,98418.50
2022-07-29T21:44:09.682Z,98423.81
2022-07-29T21:46:59.665Z,98432.19
2022-07-29T21:49:49.810Z,98439.66
2022-07-29T21:52:40.575Z,98434.56
2022-07-29T21:55:37.644Z,98435.44
2022-07-29T22:01:39.078Z,98436.06
2022-07-29T22:04:22.110Z,98429.84
2022-07-29T22:07:11.582Z,98440.34
2022-07-29T22:09:51.886Z,98443.47
2022-07-29T22:12:41.587Z,98447.50
2022-07-29T22:15:32.586Z,98448.59
2022-07-29T22:18:22.581Z,98449.22
2022-07-29T22:21:12.572Z,98451.94
2022-07-29T22:23:52.672Z,98451.91
2022-07-29T22:26:42.570Z,98453.31
2022-07-29T22:29:22.646Z,98463.75
2022-07-29T22:32:12.587Z,98459.69
2022-07-29T22:35:02.568Z,98462.69
2022-07-29T22:37:52.630Z,98459.13
2022-07-29T22:40:42.581Z,98464.31
2022-07-29T22:43:36.564Z,98469.16
2022-07-29T22:46:30.642Z,98469.66
2022-07-29T22:49:10.991Z,98469.72
2022-07-29T22:52:00.598Z,98467.84
2022-07-29T22:54:57.618Z,98459.59
2022-07-29T22:57:47.602Z,98466.31
2022-07-29T23:00:27.680Z,98459.66
2022-07-29T23:03:17.631Z,98455.91
2022-07-29T23:05:57.645Z,98454.28
2022-07-29T23:08:47.630Z,98451.28
2022-07-29T23:11:27.686Z,98455.38
2022-07-29T23:14:17.594Z,98452.72
2022-07-29T23:16:57.922Z,98451.97
2022-07-29T23:19:47.596Z,98456.03
2022-07-29T23:22:37.606Z,98448.53
2022-07-29T23:25:27.621Z,98451.31
2022-07-29T23:28:11.658Z,98448.16
2022-07-29T23:31:02.637Z,98445.78
2022-07-29T23:33:52.611Z,98439.66
2022-07-29T23:36:42.622Z,98440.44
2022-07-29T23:39:22.707Z,98433.78
2022-07-29T23:42:13.660Z,98430.53
2022-07-29T23:44:53.686Z,98427.66
2022-07-29T23:47:43.639Z,98422.31
2022-07-29T23:50:23.674Z,98410.28
2022-07-29T23:53:13.601Z,98405.47
2022-07-29T23:56:07.595Z,98396.06
2022-07-29T23:58:57.673Z,98388.97
